Time;durP1;ratioP1;P1;durP2;ratioP2;P2;SDS_P1;SDS_P2;PMS_P1;PMS_P2;Temp;Humidity;BMP_temperature;BMP_pressure;BME280_temperature;BME280_humidity;BME280_pressure;Samples;Min_cycle;Max_cycle;Signal;HPM_P1;HPM_P2
2022/07/15 04:05:40;;;;;;;1.50;0.30;;;19.30;61.60;;;;;;5299176;24;20383;-76
2022/07/15 04:08:06;;;;;;;3.05;0.13;;;19.30;62.30;;;;;;4865770;29;20065;-75
2022/07/15 04:10:31;;;;;;;3.22;0.43;;;19.40;61.80;;;;;;4882884;29;20067;-74
2022/07/15 04:12:57;;;;;;;2.00;0.20;;;19.40;61.20;;;;;;4882572;29;20059;-75
2022/07/15 04:15:23;;;;;;;1.52;0.20;;;19.40;60.80;;;;;;4883598;29;20056;-75
2022/07/15 04:17:49;;;;;;;2.05;0.30;;;19.40;60.40;;;;;;4883586;29;20056;-74
2022/07/15 04:20:15;;;;;;;0.80;0.20;;;19.40;60.30;;;;;;4883881;29;20052;-76
2022/07/15 04:22:42;;;;;;;1.88;0.43;;;19.40;59.90;;;;;;4883859;29;20057;-76
2022/07/15 04:25:15;;;;;;;2.05;0.10;;;19.40;59.90;;;;;;4883620;29;20053;-75
2022/07/15 04:27:42;;;;;;;3.22;0.30;;;19.50;59.90;;;;;;4883995;29;20056;-76
2022/07/15 04:30:08;;;;;;;3.15;0.30;;;19.40;59.80;;;;;;4882398;29;20053;-76
2022/07/15 04:32:34;;;;;;;1.67;0.30;;;19.40;59.70;;;;;;4883506;29;20089;-74
2022/07/15 04:35:00;;;;;;;1.88;0.20;;;19.40;59.70;;;;;;4884367;29;20157;-73
2022/07/15 04:37:25;;;;;;;1.48;0.20;;;19.40;59.60;;;;;;4883158;29;20472;-74
2022/07/15 04:39:51;;;;;;;2.63;0.30;;;19.40;59.60;;;;;;4883015;29;20559;-77
2022/07/15 04:42:17;;;;;;;1.98;0.20;;;19.40;59.60;;;;;;4883469;29;20148;-76
2022/07/15 04:44:42;;;;;;;1.10;0.10;;;19.40;59.50;;;;;;4883002;29;20053;-76
2022/07/15 04:47:08;;;;;;;0.80;0.32;;;19.40;59.30;;;;;;4883190;29;20045;-76
2022/07/15 04:52:18;;;;;;;3.25;0.57;;;19.30;59.10;;;;;;4883043;29;20460;-78
2022/07/15 04:54:43;;;;;;;1.33;0.20;;;19.30;59.10;;;;;;4882957;29;20064;-76
2022/07/15 04:57:11;;;;;;;1.73;0.20;;;19.30;59.10;;;;;;4883184;29;20068;-76
2022/07/15 04:59:37;;;;;;;3.20;0.45;;;19.30;59.10;;;;;;4866556;29;20057;-76
2022/07/15 05:02:03;;;;;;;1.20;0.25;;;19.30;59.00;;;;;;4882992;29;20060;-73
2022/07/15 05:04:29;;;;;;;3.45;0.55;;;19.20;58.90;;;;;;4882769;29;20433;-75
2022/07/15 05:06:56;;;;;;;5.00;0.20;;;19.20;59.00;;;;;;4882437;29;20064;-77
2022/07/15 05:09:22;;;;;;;5.70;0.47;;;19.20;58.90;;;;;;4882636;29;20045;-74
2022/07/15 05:11:47;;;;;;;2.55;0.32;;;19.20;59.10;;;;;;4882947;29;20055;-73
2022/07/15 05:14:13;;;;;;;3.35;0.20;;;19.20;59.10;;;;;;4882500;29;20044;-76
2022/07/15 05:16:39;;;;;;;1.90;0.20;;;19.20;59.20;;;;;;4882901;29;20483;-76
2022/07/15 05:19:05;;;;;;;0.93;0.10;;;19.20;59.20;;;;;;4882475;29;20120;-76
2022/07/15 05:21:32;;;;;;;3.85;0.30;;;19.20;59.30;;;;;;4882642;29;20061;-74
2022/07/15 05:23:57;;;;;;;1.63;0.43;;;19.20;59.30;;;;;;4866524;29;20060;-74
2022/07/15 05:26:23;;;;;;;3.65;0.40;;;19.20;59.40;;;;;;4883248;29;20064;-73
2022/07/15 05:28:49;;;;;;;4.68;0.20;;;19.20;59.40;;;;;;4882693;29;20055;-73
2022/07/15 05:31:15;;;;;;;4.30;0.30;;;19.20;59.50;;;;;;4881831;29;20455;-71
2022/07/15 05:33:40;;;;;;;10.25;1.17;;;19.20;59.80;;;;;;4882358;29;20057;-75
2022/07/15 05:36:14;;;;;;;5.60;0.75;;;19.20;60.00;;;;;;4882571;29;20121;-72
2022/07/15 05:38:41;;;;;;;3.10;0.30;;;19.20;60.20;;;;;;4882549;29;20403;-73
2022/07/15 05:41:07;;;;;;;6.68;1.10;;;19.30;60.20;;;;;;4864677;29;20372;-73
2022/07/15 05:43:32;;;;;;;4.25;0.45;;;19.30;60.30;;;;;;4882216;29;20048;-73
2022/07/15 05:45:58;;;;;;;8.40;0.65;;;19.30;60.50;;;;;;4882534;29;20055;-73
2022/07/15 05:48:24;;;;;;;9.68;1.05;;;19.30;60.60;;;;;;4866467;29;20049;-70
2022/07/15 05:50:49;;;;;;;9.88;0.93;;;19.40;61.10;;;;;;4882031;29;20037;-76
2022/07/15 05:53:15;;;;;;;12.65;0.73;;;19.40;61.00;;;;;;4865364;29;20048;-73
2022/07/15 05:55:41;;;;;;;10.85;1.00;;;19.40;61.10;;;;;;4881893;29;20051;-73
2022/07/15 05:58:08;;;;;;;13.38;1.23;;;19.50;61.20;;;;;;4882064;29;20132;-73
2022/07/15 06:00:36;;;;;;;21.98;1.30;;;19.50;61.30;;;;;;4881351;29;20101;-73
2022/07/15 06:03:05;;;;;;;23.15;1.13;;;19.60;61.80;;;;;;4881582;29;20064;-72
2022/07/15 06:05:32;;;;;;;17.50;1.85;;;19.60;61.60;;;;;;4865392;29;20128;-73
2022/07/15 06:07:58;;;;;;;14.98;2.22;;;19.60;61.70;;;;;;4881156;29;20061;-72
2022/07/15 06:10:25;;;;;;;20.65;1.45;;;19.60;61.60;;;;;;4881668;29;20084;-73
2022/07/15 06:12:55;;;;;;;23.33;1.33;;;19.60;61.60;;;;;;4881721;29;20524;-73
2022/07/15 06:15:22;;;;;;;9.52;0.93;;;19.60;61.70;;;;;;4882017;29;20089;-74
2022/07/15 06:17:49;;;;;;;11.60;1.08;;;19.60;61.60;;;;;;4881823;29;20463;-75
2022/07/15 06:20:15;;;;;;;10.55;1.13;;;19.60;61.60;;;;;;4881535;29;20075;-73
2022/07/15 06:22:41;;;;;;;12.45;1.13;;;19.60;61.70;;;;;;4865581;29;20052;-74
2022/07/15 06:25:08;;;;;;;12.20;1.45;;;19.60;61.80;;;;;;4881696;29;20052;-71
2022/07/15 06:27:34;;;;;;;5.03;0.30;;;19.60;62.10;;;;;;4865600;29;20108;-73
2022/07/15 06:30:00;;;;;;;8.88;0.70;;;19.70;62.00;;;;;;4880944;29;20053;-72
2022/07/15 06:32:26;;;;;;;9.52;0.80;;;19.70;62.10;;;;;;4881215;29;20053;-73
2022/07/15 06:34:51;;;;;;;5.47;0.63;;;19.70;61.80;;;;;;4879857;29;20116;-74
2022/07/15 06:37:17;;;;;;;8.40;0.40;;;19.80;61.90;;;;;;4880868;29;20121;-73
2022/07/15 06:39:43;;;;;;;3.83;0.38;;;19.70;61.70;;;;;;4862824;29;20060;-72
2022/07/15 06:42:10;;;;;;;6.47;0.43;;;19.80;61.60;;;;;;4846738;29;20469;-73
2022/07/15 06:44:35;;;;;;;4.85;0.80;;;19.80;61.50;;;;;;4867983;29;20067;-74
2022/07/15 06:47:03;;;;;;;7.80;0.50;;;19.80;61.30;;;;;;4881635;29;20128;-73
2022/07/15 06:49:29;;;;;;;31.73;2.25;;;19.80;61.30;;;;;;4880948;29;20092;-73
2022/07/15 06:51:55;;;;;;;12.15;1.02;;;19.80;61.20;;;;;;4880793;29;20080;-71
2022/07/15 06:54:21;;;;;;;8.48;0.70;;;19.80;61.10;;;;;;4864763;29;20063;-72
2022/07/15 06:56:47;;;;;;;9.20;0.90;;;19.80;60.90;;;;;;4880863;29;20053;-72
2022/07/15 06:59:13;;;;;;;6.15;0.65;;;19.80;60.90;;;;;;4880710;29;20053;-72
2022/07/15 07:01:39;;;;;;;6.05;0.55;;;19.80;61.10;;;;;;4879958;29;20075;-76
2022/07/15 07:04:05;;;;;;;3.83;0.30;;;19.90;60.90;;;;;;4864411;29;20120;-78
2022/07/15 07:06:30;;;;;;;3.35;0.40;;;19.90;60.00;;;;;;4880377;29;20128;-77
2022/07/15 07:08:56;;;;;;;2.47;0.22;;;19.90;59.40;;;;;;4880197;29;20127;-77
2022/07/15 07:11:22;;;;;;;4.50;0.30;;;19.90;59.00;;;;;;4894981;29;20092;-76
2022/07/15 07:13:49;;;;;;;1.40;0.10;;;19.90;59.10;;;;;;4873846;29;20041;-76
2022/07/15 07:16:15;;;;;;;3.22;0.30;;;19.80;58.70;;;;;;4875159;29;20049;-75
2022/07/15 07:18:40;;;;;;;2.40;0.32;;;19.80;58.30;;;;;;4868767;29;20143;-75
2022/07/15 07:21:06;;;;;;;3.45;0.40;;;19.80;58.30;;;;;;4883051;29;20053;-74
2022/07/15 07:23:32;;;;;;;4.07;0.47;;;19.80;58.50;;;;;;4881405;29;20060;-74
2022/07/15 07:25:59;;;;;;;2.17;0.10;;;19.80;58.10;;;;;;4893172;29;20121;-76
2022/07/15 07:28:24;;;;;;;2.30;0.30;;;19.80;58.10;;;;;;4864414;29;20477;-76
2022/07/15 07:30:52;;;;;;;3.03;0.35;;;19.80;58.00;;;;;;4880890;29;20128;-75
2022/07/15 07:33:18;;;;;;;5.18;0.35;;;19.80;58.30;;;;;;4880766;29;20113;-73
2022/07/15 07:35:44;;;;;;;5.95;0.30;;;19.80;58.70;;;;;;4864652;29;20084;-71
2022/07/15 07:38:11;;;;;;;1.75;0.28;;;19.90;59.00;;;;;;4880559;29;20449;-71
2022/07/15 07:40:37;;;;;;;4.35;0.30;;;19.90;58.20;;;;;;4880967;29;20055;-71
2022/07/15 07:43:03;;;;;;;4.30;0.20;;;19.90;57.80;;;;;;4880285;29;20045;-71
2022/07/15 07:45:29;;;;;;;2.08;0.20;;;19.90;58.10;;;;;;4880531;29;20127;-71
2022/07/15 07:47:58;;;;;;;5.57;0.40;;;19.90;57.80;;;;;;4895580;29;20471;-73
2022/07/15 07:50:24;;;;;;;2.88;0.30;;;19.90;58.20;;;;;;4899796;29;20431;-71
2022/07/15 07:52:50;;;;;;;13.43;0.65;;;19.80;58.20;;;;;;4899690;29;20041;-72
2022/07/15 07:55:15;;;;;;;5.43;0.50;;;19.90;58.50;;;;;;4887792;29;20461;-72
2022/07/15 07:57:49;;;;;;;6.05;0.35;;;19.90;58.60;;;;;;4880849;29;20049;-73
2022/07/15 08:00:16;;;;;;;2.63;0.20;;;19.90;58.80;;;;;;4865176;29;20088;-72
2022/07/15 08:02:42;;;;;;;3.25;0.30;;;19.90;58.80;;;;;;4880325;29;20380;-73
2022/07/15 08:05:11;;;;;;;1.27;0.20;;;19.80;58.80;;;;;;4882236;29;20063;-74
2022/07/15 08:07:37;;;;;;;2.42;0.20;;;19.80;58.90;;;;;;4867407;29;20061;-71
2022/07/15 08:10:03;;;;;;;1.98;0.17;;;19.80;59.00;;;;;;4884140;29;20485;-72
2022/07/15 08:12:29;;;;;;;2.67;0.30;;;19.90;59.00;;;;;;4882945;29;20048;-72
2022/07/15 08:14:55;;;;;;;2.30;0.17;;;19.80;58.90;;;;;;4883759;29;20136;-72
2022/07/15 08:17:22;;;;;;;2.33;0.20;;;19.80;58.90;;;;;;4883894;29;20052;-72
2022/07/15 08:19:48;;;;;;;1.80;0.30;;;19.80;59.00;;;;;;4882878;29;20053;-72
2022/07/15 08:22:14;;;;;;;0.85;0.20;;;19.80;59.10;;;;;;4867824;29;20079;-73
2022/07/15 08:24:40;;;;;;;2.22;0.22;;;19.90;59.20;;;;;;4883971;29;20064;-73
2022/07/15 08:27:06;;;;;;;2.53;0.10;;;19.90;59.00;;;;;;4883855;29;20360;-72
2022/07/15 08:29:32;;;;;;;1.83;0.30;;;19.90;58.80;;;;;;4883570;29;20053;-72
2022/07/15 08:31:58;;;;;;;1.98;0.28;;;19.90;59.00;;;;;;4883504;29;20108;-73
2022/07/15 08:34:23;;;;;;;0.77;0.15;;;19.90;58.90;;;;;;4883564;29;20457;-72
2022/07/15 08:36:49;;;;;;;2.90;0.28;;;19.90;58.90;;;;;;4882920;29;20065;-73
2022/07/15 08:39:15;;;;;;;1.35;0.30;;;19.90;58.90;;;;;;4883609;29;20578;-72
2022/07/15 08:41:41;;;;;;;1.20;0.10;;;19.90;58.90;;;;;;4866777;29;20132;-73
2022/07/15 08:44:07;;;;;;;0.85;0.10;;;19.90;58.70;;;;;;4882764;29;20136;-73
2022/07/15 08:46:34;;;;;;;1.40;0.10;;;19.90;58.70;;;;;;4883189;29;20048;-73
2022/07/15 08:49:13;;;;;;;3.78;0.20;;;20.00;58.90;;;;;;4867160;29;20056;-73
2022/07/15 08:51:45;;;;;;;1.55;0.10;;;20.00;58.90;;;;;;4883320;29;20445;-72
2022/07/15 08:54:12;;;;;;;3.80;0.45;;;20.00;58.90;;;;;;4883340;29;20083;-71
2022/07/15 08:56:38;;;;;;;4.28;0.60;;;20.00;58.90;;;;;;4882668;29;20057;-74
2022/07/15 08:59:06;;;;;;;14.57;0.57;;;20.10;59.00;;;;;;4882670;29;20178;-73
2022/07/15 09:01:33;;;;;;;7.82;0.60;;;20.10;59.00;;;;;;4866242;29;20057;-72
2022/07/15 09:03:59;;;;;;;7.47;0.50;;;20.20;59.20;;;;;;4882926;29;20120;-72
2022/07/15 09:06:36;;;;;;;5.97;0.55;;;20.20;59.10;;;;;;4882971;29;20077;-72
2022/07/15 09:09:24;;;;;;;13.20;0.70;;;20.20;59.20;;;;;;4866453;29;20053;-72
2022/07/15 09:12:03;;;;;;;10.45;1.05;;;20.30;59.40;;;;;;4882854;29;20059;-72
2022/07/15 09:14:30;;;;;;;7.60;0.50;;;20.20;59.30;;;;;;4866383;29;20057;-72
2022/07/15 09:17:11;;;;;;;5.85;0.47;;;20.20;59.40;;;;;;4882749;29;20160;-73
2022/07/15 09:19:59;;;;;;;7.70;0.70;;;20.30;58.90;;;;;;4866774;29;20049;-75
2022/07/15 09:22:28;;;;;;;5.75;0.40;;;20.30;59.10;;;;;;4882461;29;20071;-74
2022/07/15 09:25:14;;;;;;;8.45;0.70;;;20.30;59.30;;;;;;4882643;29;20049;-75
2022/07/15 09:27:42;;;;;;;4.68;0.30;;;20.30;59.30;;;;;;4882538;29;20061;-73
2022/07/15 09:36:01;;;;;;;3.35;0.30;;;20.40;57.90;;;;;;4865908;29;20057;-74
2022/07/15 09:38:30;;;;;;;1.65;0.10;;;20.40;56.80;;;;;;4882171;29;20044;-74
2022/07/15 09:40:56;;;;;;;1.67;0.50;;;20.40;55.60;;;;;;4866882;29;20060;-73
2022/07/15 09:43:22;;;;;;;1.30;0.10;;;20.40;56.00;;;;;;4895287;29;20041;-73
2022/07/15 09:45:56;;;;;;;1.30;0.30;;;20.40;56.10;;;;;;4893519;29;20508;-73
2022/07/15 09:48:24;;;;;;;2.80;0.20;;;20.40;56.40;;;;;;4886412;29;20052;-74
2022/07/15 09:50:49;;;;;;;4.95;0.30;;;20.50;56.60;;;;;;4866414;29;20053;-73
2022/07/15 09:53:16;;;;;;;2.38;0.45;;;20.50;56.70;;;;;;4881881;29;20380;-73
2022/07/15 09:55:47;;;;;;;1.70;0.30;;;20.50;56.50;;;;;;4865740;29;20051;-75
2022/07/15 09:58:14;;;;;;;2.97;0.20;;;20.50;56.80;;;;;;4865604;29;20052;-73
2022/07/15 10:00:40;;;;;;;2.47;0.20;;;20.50;57.10;;;;;;4865267;29;20049;-73
2022/07/15 10:03:06;;;;;;;4.05;0.30;;;20.60;57.10;;;;;;4881430;29;20120;-73
2022/07/15 10:05:36;;;;;;;1.23;0.30;;;20.60;56.90;;;;;;4881554;29;20444;-73
2022/07/15 10:08:04;;;;;;;1.85;0.13;;;20.60;56.90;;;;;;4881588;29;20072;-73
2022/07/15 10:10:31;;;;;;;1.30;0.10;;;20.60;56.80;;;;;;4881569;29;20045;-73
2022/07/15 10:13:12;;;;;;;0.60;0.10;;;20.60;56.70;;;;;;4866262;29;20053;-73
2022/07/15 10:15:51;;;;;;;2.60;0.22;;;20.60;56.90;;;;;;4882265;29;20472;-74
2022/07/15 10:18:51;;;;;;;5.00;0.32;;;20.60;56.90;;;;;;4865133;29;20121;-72
2022/07/15 10:21:32;;;;;;;2.72;0.20;;;20.60;56.80;;;;;;4799946;29;20067;-73
2022/07/15 10:24:32;;;;;;;2.25;0.20;;;20.60;56.90;;;;;;4881563;29;20049;-74
2022/07/15 10:27:26;;;;;;;1.77;0.20;;;20.60;56.90;;;;;;4856702;29;20071;-73
2022/07/15 10:29:53;;;;;;;;;;;20.60;57.10;;;;;;4881695;29;20053;-73
2022/07/15 10:32:19;;;;;;;1.98;0.20;;;20.50;57.20;;;;;;4880305;29;19968;-74
2022/07/15 10:34:45;;;;;;;1.95;0.13;;;20.60;57.40;;;;;;4864870;29;20181;-76
2022/07/15 10:37:12;;;;;;;3.63;0.43;;;20.60;57.60;;;;;;4881736;29;20048;-75
2022/07/15 10:40:06;;;;;;;4.10;0.43;;;20.60;57.50;;;;;;4881675;29;20329;-73
2022/07/15 10:43:00;;;;;;;7.93;0.55;;;20.60;57.60;;;;;;4850576;29;20061;-75
2022/07/15 10:45:25;;;;;;;;;;;20.60;57.60;;;;;;4866082;29;20053;-73
2022/07/15 10:48:24;;;;;;;3.08;0.22;;;20.60;57.70;;;;;;4880984;29;19935;-76
2022/07/15 10:50:50;;;;;;;2.50;0.13;;;20.60;57.60;;;;;;4881490;29;20156;-72
2022/07/15 10:53:19;;;;;;;1.85;0.25;;;20.60;57.60;;;;;;4881101;29;20059;-74
2022/07/15 10:55:45;;;;;;;1.25;0.30;;;20.70;57.80;;;;;;4881043;29;20065;-75
2022/07/15 10:58:12;;;;;;;1.88;0.40;;;20.70;58.10;;;;;;4881058;29;20125;-75
2022/07/15 11:00:37;;;;;;;1.52;0.22;;;20.70;58.10;;;;;;4865201;29;20543;-73
2022/07/15 11:03:12;;;;;;;1.13;0.20;;;20.70;57.90;;;;;;4882031;29;20137;-73
2022/07/15 11:06:02;;;;;;;2.83;0.40;;;20.70;58.10;;;;;;4880019;29;20346;-74
2022/07/15 11:08:34;;;;;;;1.67;0.30;;;20.80;58.10;;;;;;4881173;29;20056;-75
2022/07/15 11:11:14;;;;;;;1.40;0.40;;;20.70;58.50;;;;;;4864621;29;20092;-74
2022/07/15 11:13:42;;;;;;;1.23;0.30;;;20.80;58.70;;;;;;4864933;29;20131;-75
2022/07/15 11:16:19;;;;;;;3.17;0.85;;;20.70;58.60;;;;;;4881300;29;20045;-74
2022/07/15 11:18:50;;;;;;;2.22;0.45;;;20.80;58.70;;;;;;4881300;29;20056;-76
2022/07/15 11:21:15;;;;;;;5.00;0.40;;;20.80;58.80;;;;;;4881781;29;20425;-76
2022/07/15 11:23:45;;;;;;;2.20;0.28;;;20.80;58.80;;;;;;4881045;29;20052;-74
2022/07/15 11:26:11;;;;;;;2.10;0.45;;;20.80;58.90;;;;;;4864887;29;20052;-76
2022/07/15 11:28:37;;;;;;;1.67;0.35;;;20.80;59.10;;;;;;4865187;29;20057;-75
2022/07/15 11:31:02;;;;;;;0.85;0.30;;;20.80;58.80;;;;;;4880927;29;20057;-75
2022/07/15 11:33:30;;;;;;;2.85;0.20;;;20.70;58.70;;;;;;4865151;29;20133;-76
2022/07/15 11:36:05;;;;;;;3.42;0.70;;;20.70;58.70;;;;;;4880441;29;20056;-77
2022/07/15 11:38:38;;;;;;;2.33;0.50;;;20.70;59.00;;;;;;4864774;29;20048;-78
2022/07/15 11:46:52;;;;;;;3.92;0.45;;;20.70;58.30;;;;;;4868091;29;20472;-76
2022/07/15 11:49:35;;;;;;;2.65;0.65;;;20.60;58.50;;;;;;4868246;29;20057;-74
2022/07/15 11:52:04;;;;;;;3.60;0.57;;;20.70;59.10;;;;;;4868314;29;20056;-73
2022/07/15 11:54:30;;;;;;;2.15;0.57;;;20.60;58.80;;;;;;4884292;29;20052;-73
2022/07/15 11:56:57;;;;;;;4.30;0.80;;;20.60;58.80;;;;;;4884613;29;20376;-72
2022/07/15 11:59:23;;;;;;;4.43;0.85;;;20.60;59.00;;;;;;4882481;29;20205;-72
2022/07/15 12:02:10;;;;;;;2.60;0.52;;;20.70;59.20;;;;;;4881289;29;20124;-71
2022/07/15 12:04:37;;;;;;;2.50;0.73;;;20.70;59.30;;;;;;4866556;29;20143;-71
2022/07/15 12:07:03;;;;;;;4.22;0.80;;;20.70;59.20;;;;;;4867130;29;20076;-74
2022/07/15 12:09:58;;;;;;;3.38;0.40;;;20.70;59.30;;;;;;4883686;29;20059;-74
2022/07/15 12:12:24;;;;;;;2.10;0.50;;;20.70;59.30;;;;;;4851216;29;20425;-75
2022/07/15 12:14:50;;;;;;;4.22;0.70;;;20.70;59.40;;;;;;4883063;29;20136;-74
2022/07/15 12:17:17;;;;;;;6.25;0.80;;;20.70;59.50;;;;;;4867424;29;20354;-75
2022/07/15 12:19:49;;;;;;;3.47;0.60;;;20.60;59.30;;;;;;4883630;29;20437;-74
2022/07/15 12:22:15;;;;;;;4.13;0.73;;;20.60;58.90;;;;;;4883461;29;20053;-76
2022/07/15 12:24:46;;;;;;;3.85;0.60;;;20.70;59.00;;;;;;4883849;29;20075;-75
2022/07/15 12:27:13;;;;;;;6.80;1.05;;;20.70;58.90;;;;;;4883907;29;20057;-74
2022/07/15 12:29:40;;;;;;;3.67;0.60;;;20.70;58.90;;;;;;4882445;29;20064;-74
2022/07/15 12:32:10;;;;;;;3.60;0.80;;;20.60;58.70;;;;;;4883239;29;20475;-74
2022/07/15 12:34:56;;;;;;;6.32;0.80;;;20.70;58.60;;;;;;4883461;29;20428;-75
2022/07/15 12:37:34;;;;;;;7.45;0.73;;;20.70;58.90;;;;;;4882994;29;20056;-74
2022/07/15 12:40:02;;;;;;;3.42;1.05;;;20.70;58.60;;;;;;4882930;29;20045;-74
2022/07/15 12:42:39;;;;;;;5.18;0.70;;;20.70;58.50;;;;;;4883209;29;20064;-75
2022/07/15 12:45:13;;;;;;;6.55;0.93;;;20.70;57.90;;;;;;4883058;29;20509;-74
2022/07/15 12:48:01;;;;;;;4.55;0.70;;;20.70;58.00;;;;;;4882975;29;20085;-74
2022/07/15 12:50:29;;;;;;;3.28;0.40;;;20.70;58.40;;;;;;4882567;29;20172;-76
2022/07/15 12:52:56;;;;;;;2.58;0.40;;;20.70;58.50;;;;;;4882736;29;20132;-75
2022/07/15 12:55:25;;;;;;;2.17;0.63;;;20.70;58.80;;;;;;4882188;29;20044;-75
2022/07/15 12:58:01;;;;;;;2.60;0.80;;;20.70;58.70;;;;;;4864489;29;20493;-75
2022/07/15 13:00:29;;;;;;;1.83;0.50;;;20.70;58.70;;;;;;4856098;29;20049;-74
2022/07/15 13:03:14;;;;;;;3.95;0.82;;;20.70;58.80;;;;;;4879299;29;20053;-76
2022/07/15 13:05:51;;;;;;;4.15;0.63;;;20.70;58.90;;;;;;4882878;29;20057;-73
2022/07/15 13:08:22;;;;;;;4.72;0.57;;;20.70;58.70;;;;;;4882650;29;20064;-73
2022/07/15 13:10:51;;;;;;;3.88;0.60;;;20.70;58.70;;;;;;4865057;29;20061;-74
2022/07/15 13:13:21;;;;;;;3.58;0.60;;;20.70;58.90;;;;;;4864031;29;20046;-74
2022/07/15 13:15:48;;;;;;;4.63;0.75;;;20.70;59.30;;;;;;4864343;29;20089;-77
2022/07/15 13:18:15;;;;;;;3.10;0.60;;;20.70;59.50;;;;;;4864207;29;20053;-74
2022/07/15 13:20:41;;;;;;;5.25;0.75;;;20.70;59.60;;;;;;4864148;29;20049;-74
2022/07/15 13:23:08;;;;;;;2.45;0.70;;;20.70;59.70;;;;;;4863784;29;20053;-74
2022/07/15 13:25:37;;;;;;;2.72;0.60;;;20.70;59.70;;;;;;4864079;29;20087;-76
2022/07/15 13:28:06;;;;;;;5.72;0.95;;;20.70;59.90;;;;;;4865453;29;20421;-75
2022/07/15 13:30:32;;;;;;;4.20;0.82;;;20.70;59.90;;;;;;4866135;29;20131;-75
2022/07/15 13:32:59;;;;;;;4.65;0.75;;;20.70;59.90;;;;;;4866171;29;20052;-75
2022/07/15 13:35:25;;;;;;;4.63;0.70;;;20.70;59.90;;;;;;4861712;29;20465;-70
2022/07/15 13:37:51;;;;;;;6.43;0.80;;;20.70;60.00;;;;;;4863779;29;20548;-75
2022/07/15 13:40:17;;;;;;;2.20;0.70;;;20.70;60.10;;;;;;4863318;29;20049;-74
2022/07/15 13:42:43;;;;;;;3.28;0.60;;;20.60;60.00;;;;;;4863681;29;20148;-73
2022/07/15 13:45:10;;;;;;;1.67;0.50;;;20.60;59.80;;;;;;4863436;29;20053;-76
2022/07/15 13:47:36;;;;;;;4.03;0.80;;;20.60;59.90;;;;;;4847347;29;20061;-74
2022/07/15 13:52:50;;;;;;;5.50;0.80;;;20.60;60.20;;;;;;4862947;29;20053;-72
2022/07/15 13:55:18;;;;;;;3.33;0.60;;;20.70;60.50;;;;;;4863543;29;20062;-80
2022/07/15 13:57:46;;;;;;;7.20;1.58;;;20.70;60.80;;;;;;4863350;29;20052;-78
2022/07/15 14:00:16;;;;;;;7.68;1.20;;;20.70;61.10;;;;;;4862977;29;20129;-76
2022/07/15 14:02:42;;;;;;;6.82;2.58;;;20.80;61.10;;;;;;4875038;29;20072;-74
2022/07/15 14:05:10;;;;;;;15.07;1.90;;;20.80;62.10;;;;;;4881888;29;20374;-75
2022/07/15 14:07:38;;;;;;;9.95;1.48;;;20.80;62.50;;;;;;4881301;29;20062;-77
2022/07/15 14:10:05;;;;;;;9.93;2.05;;;20.80;63.30;;;;;;4865125;29;20132;-76
2022/07/15 14:12:33;;;;;;;9.75;1.63;;;20.90;63.40;;;;;;4880587;29;20425;-78
2022/07/15 14:14:59;;;;;;;13.95;1.75;;;20.90;63.30;;;;;;4874814;29;20041;-77
2022/07/15 14:17:25;;;;;;;14.65;1.88;;;20.90;63.00;;;;;;4863237;29;20421;-76
2022/07/15 14:19:51;;;;;;;12.25;1.48;;;21.00;62.80;;;;;;4863995;29;20413;-72
2022/07/15 14:22:16;;;;;;;12.40;1.92;;;21.00;63.00;;;;;;4863239;29;20053;-77
2022/07/15 14:24:42;;;;;;;6.85;1.20;;;21.00;62.00;;;;;;4863145;29;20057;-77
2022/07/15 14:27:08;;;;;;;10.05;1.88;;;21.00;62.00;;;;;;4862874;29;20125;-74
2022/07/15 14:29:34;;;;;;;19.73;2.90;;;21.00;62.30;;;;;;4863113;29;20045;-76
2022/07/15 14:32:00;;;;;;;9.02;1.50;;;21.00;63.00;;;;;;4863216;29;20058;-79
2022/07/15 14:34:26;;;;;;;11.38;2.25;;;21.00;63.30;;;;;;4863357;29;20136;-78
2022/07/15 14:36:51;;;;;;;13.57;1.95;;;21.00;63.20;;;;;;4863013;29;20434;-78
2022/07/15 14:39:17;;;;;;;13.10;1.98;;;21.00;63.50;;;;;;4846628;29;20066;-76
2022/07/15 14:41:43;;;;;;;7.55;1.35;;;21.00;63.20;;;;;;4862822;29;20046;-77
2022/07/15 14:44:09;;;;;;;12.25;1.73;;;21.00;63.20;;;;;;4847009;29;20050;-77
2022/07/15 14:46:34;;;;;;;24.52;2.97;;;21.00;64.20;;;;;;4846873;29;20467;-77
2022/07/15 14:49:00;;;;;;;17.77;2.17;;;21.00;64.60;;;;;;4846535;29;20136;-77
2022/07/15 14:51:26;;;;;;;18.05;2.28;;;21.10;64.70;;;;;;4845698;29;20061;-76
2022/07/15 14:53:52;;;;;;;14.63;2.28;;;21.10;64.70;;;;;;4857235;29;20052;-76
2022/07/15 14:56:17;;;;;;;30.52;3.97;;;21.10;64.50;;;;;;4864936;29;20108;-78
2022/07/15 14:58:43;;;;;;;19.50;3.17;;;21.10;64.00;;;;;;4847898;29;20053;-78
2022/07/15 15:01:09;;;;;;;18.75;1.75;;;21.20;64.00;;;;;;4862597;29;20349;-78
2022/07/15 15:03:35;;;;;;;13.23;1.67;;;21.10;63.70;;;;;;4863016;29;20049;-77
2022/07/15 15:06:00;;;;;;;9.23;1.73;;;21.10;63.40;;;;;;4846831;29;20424;-75
2022/07/15 15:08:26;;;;;;;9.27;2.08;;;21.10;63.30;;;;;;4881262;29;20045;-76
2022/07/15 15:10:53;;;;;;;9.80;1.80;;;21.20;63.60;;;;;;4881322;29;20045;-74
2022/07/15 15:13:19;;;;;;;5.35;1.52;;;21.10;63.90;;;;;;4881300;29;20453;-73
2022/07/15 15:15:44;;;;;;;7.03;1.88;;;21.10;64.30;;;;;;4853341;29;20080;-75
2022/07/15 15:18:10;;;;;;;9.25;2.08;;;21.10;64.80;;;;;;4850025;29;20053;-75
2022/07/15 15:20:36;;;;;;;8.05;1.65;;;21.10;65.00;;;;;;4865108;29;20049;-75
2022/07/15 15:23:02;;;;;;;6.28;2.10;;;21.00;65.30;;;;;;4849471;29;20124;-75
2022/07/15 15:28:12;;;;;;;8.98;2.22;;;21.00;65.60;;;;;;4865220;29;20061;-74
2022/07/15 15:30:38;;;;;;;7.10;1.92;;;20.90;65.70;;;;;;4849905;29;20137;-75
2022/07/15 15:33:04;;;;;;;5.60;1.75;;;20.90;65.90;;;;;;4865183;29;20080;-74
2022/07/15 15:35:32;;;;;;;7.25;1.33;;;20.90;65.90;;;;;;4865488;29;20114;-76
2022/07/15 15:37:57;;;;;;;6.03;1.38;;;20.80;66.10;;;;;;4865950;29;20418;-75
2022/07/15 15:40:23;;;;;;;10.35;2.08;;;20.80;66.30;;;;;;4865819;29;20061;-75
2022/07/15 15:42:49;;;;;;;13.50;1.63;;;20.80;66.50;;;;;;4849703;29;20093;-76
2022/07/15 15:45:15;;;;;;;5.22;1.35;;;20.80;66.70;;;;;;4865733;29;20050;-75
2022/07/15 15:47:41;;;;;;;5.95;1.52;;;20.80;66.80;;;;;;4865565;29;20049;-75
2022/07/15 15:50:07;;;;;;;6.25;1.40;;;20.80;66.80;;;;;;4865503;29;20132;-74
2022/07/15 15:52:33;;;;;;;7.10;1.38;;;20.80;66.70;;;;;;4849374;29;20117;-75
2022/07/15 15:54:58;;;;;;;7.80;1.75;;;20.80;66.70;;;;;;4866226;29;20053;-72
2022/07/15 15:57:24;;;;;;;7.82;1.15;;;20.80;66.70;;;;;;4856296;29;20131;-74
2022/07/15 15:59:50;;;;;;;3.53;1.23;;;20.80;66.50;;;;;;4879395;29;20402;-75
2022/07/15 16:02:16;;;;;;;4.78;1.00;;;20.90;66.40;;;;;;4865078;29;20053;-76
2022/07/15 16:04:42;;;;;;;7.90;1.30;;;20.90;66.30;;;;;;4865071;29;20061;-75
2022/07/15 16:07:07;;;;;;;5.80;1.27;;;20.80;66.00;;;;;;4858255;29;20112;-74
2022/07/15 16:09:33;;;;;;;3.97;1.05;;;20.90;66.00;;;;;;4883484;29;20045;-75
2022/07/15 16:11:59;;;;;;;3.90;0.90;;;20.90;65.90;;;;;;4884210;29;20099;-75
2022/07/15 16:14:25;;;;;;;8.25;2.15;;;20.90;65.70;;;;;;4883775;29;20508;-73
2022/07/15 16:16:51;;;;;;;6.38;1.02;;;20.90;66.20;;;;;;4884172;29;20048;-74
2022/07/15 16:19:17;;;;;;;6.40;0.88;;;20.80;65.40;;;;;;4867653;29;20461;-73
2022/07/15 16:24:27;;;;;;;3.45;1.20;;;20.90;65.30;;;;;;4884349;29;20056;-73
2022/07/15 16:26:52;;;;;;;3.35;1.33;;;20.90;65.30;;;;;;4866531;29;20059;-74
2022/07/15 16:29:18;;;;;;;3.88;1.13;;;20.90;65.10;;;;;;4883538;29;20344;-74
2022/07/15 16:31:44;;;;;;;1.83;0.82;;;20.90;65.00;;;;;;4883761;29;20048;-76
2022/07/15 16:34:10;;;;;;;3.28;1.02;;;20.90;64.90;;;;;;4867279;29;20059;-74
2022/07/15 16:36:35;;;;;;;3.13;1.00;;;20.90;65.60;;;;;;4883675;29;20064;-74
2022/07/15 16:39:02;;;;;;;4.50;0.68;;;20.80;65.10;;;;;;4883165;29;20345;-75
2022/07/15 16:41:28;;;;;;;5.00;0.80;;;20.80;65.20;;;;;;4883406;29;20056;-74
2022/07/15 16:43:53;;;;;;;6.57;1.33;;;20.80;65.00;;;;;;4883863;29;20476;-75
2022/07/15 16:46:19;;;;;;;2.75;1.10;;;20.80;64.80;;;;;;4883253;29;20105;-74
2022/07/15 16:48:45;;;;;;;2.55;0.90;;;20.80;64.70;;;;;;4866850;29;20133;-74
2022/07/15 16:51:11;;;;;;;2.40;0.65;;;20.80;64.70;;;;;;4866803;29;20057;-74
2022/07/15 16:53:37;;;;;;;1.98;0.88;;;20.80;64.60;;;;;;4883421;29;20136;-74
2022/07/15 16:56:03;;;;;;;4.68;0.93;;;20.80;64.60;;;;;;4883252;29;20060;-74
2022/07/15 16:58:29;;;;;;;3.13;0.70;;;20.80;64.50;;;;;;4882651;29;20059;-73
2022/07/15 17:00:55;;;;;;;2.50;0.60;;;20.80;64.70;;;;;;4867029;29;20060;-74
2022/07/15 17:03:21;;;;;;;3.15;1.02;;;20.80;64.80;;;;;;4883087;29;20053;-74
2022/07/15 17:05:47;;;;;;;2.53;0.70;;;20.70;64.60;;;;;;4882589;29;20052;-74
2022/07/15 17:08:12;;;;;;;2.72;0.77;;;20.80;64.80;;;;;;4882764;29;20136;-75
2022/07/15 17:10:38;;;;;;;2.63;0.70;;;20.70;64.70;;;;;;4883127;29;20140;-74
2022/07/15 17:13:04;;;;;;;1.85;0.57;;;20.70;64.80;;;;;;4883563;29;20048;-74
2022/07/15 17:15:30;;;;;;;5.35;0.90;;;20.70;64.70;;;;;;4882964;29;20349;-76
2022/07/15 17:17:55;;;;;;;6.03;0.70;;;20.70;64.80;;;;;;4882434;29;20465;-75